Time;durP1;ratioP1;P1;durP2;ratioP2;P2;SDS_P1;SDS_P2;PMS_P1;PMS_P2;Temp;Humidity;BMP_temperature;BMP_pressure;BME280_temperature;BME280_humidity;BME280_pressure;Samples;Min_cycle;Max_cycle;Signal;HPM_P1;HPM_P2
2024/01/05 00:00:29;;;;;;;179.23;67.47;;;;;;;7.54;nan;99135.91;5090239;28;20513;-71
2024/01/05 00:02:59;;;;;;;174.43;64.20;;;;;;;7.54;nan;99141.19;5092580;28;20054;-70
2024/01/05 00:05:29;;;;;;;168.10;67.05;;;;;;;7.63;nan;99140.22;5085870;28;20658;-70
2024/01/05 00:07:58;;;;;;;176.65;67.45;;;;;;;7.41;nan;99143.47;5093294;28;20626;-70
2024/01/05 00:10:28;;;;;;;181.80;67.35;;;;;;;7.38;nan;99133.25;5090528;28;20116;-70
2024/01/05 00:12:57;;;;;;;171.40;66.07;;;;;;;7.51;nan;99138.88;5092394;28;20044;-69
2024/01/05 00:15:27;;;;;;;178.52;67.05;;;;;;;7.44;nan;99143.97;5083307;28;20507;-69
2024/01/05 00:17:56;;;;;;;188.88;69.38;;;;;;;7.44;nan;99148.41;5065844;28;20051;-69
2024/01/05 00:20:26;;;;;;;176.70;68.45;;;;;;;7.37;nan;99153.50;5082054;28;20051;-70
2024/01/05 00:22:55;;;;;;;198.45;72.90;;;;;;;7.41;nan;99156.63;5082352;28;20055;-69
2024/01/05 00:25:24;;;;;;;205.98;76.13;;;;;;;7.49;nan;99161.94;5082392;28;20141;-69
2024/01/05 00:27:54;;;;;;;197.95;72.93;;;;;;;7.36;nan;99159.75;5082563;28;20074;-70
2024/01/05 00:30:23;;;;;;;196.52;74.18;;;;;;;7.34;nan;99166.19;5074837;28;20048;-69
2024/01/05 00:32:53;;;;;;;204.75;76.93;;;;;;;7.52;nan;99166.91;5082359;28;20629;-69
2024/01/05 00:35:22;;;;;;;208.75;78.38;;;;;;;7.46;nan;99175.44;5082132;28;20068;-70
2024/01/05 00:37:52;;;;;;;206.60;78.43;;;;;;;7.44;nan;99180.84;5085887;28;20140;-70
2024/01/05 00:40:22;;;;;;;190.35;73.20;;;;;;;7.41;nan;99170.66;5084578;28;20052;-69
2024/01/05 00:42:51;;;;;;;202.98;75.28;;;;;;;7.54;nan;99175.44;5068039;28;20067;-67
2024/01/05 00:45:20;;;;;;;189.90;74.97;;;;;;;7.63;nan;99182.38;5084308;28;20319;-69
2024/01/05 00:47:50;;;;;;;187.60;71.03;;;;;;;7.41;nan;99177.72;5079999;28;20055;-68
2024/01/05 00:50:19;;;;;;;203.13;73.15;;;;;;;7.25;nan;99182.94;5081677;28;20048;-69
2024/01/05 00:52:49;;;;;;;182.65;66.00;;;;;;;7.31;nan;99177.03;5086511;28;20436;-70
2024/01/05 00:55:18;;;;;;;181.40;69.43;;;;;;;7.48;nan;99184.03;5080970;28;20054;-69
2024/01/05 00:57:49;;;;;;;169.13;65.95;;;;;;;7.34;nan;99189.91;5086845;28;20078;-70
2024/01/05 01:00:18;;;;;;;181.45;68.10;;;;;;;7.35;nan;99191.53;5089803;28;20062;-69
2024/01/05 01:02:48;;;;;;;185.52;70.05;;;;;;;7.41;nan;99201.44;5088170;28;20503;-69
2024/01/05 01:05:17;;;;;;;180.38;69.75;;;;;;;7.62;nan;99202.66;5087047;28;20132;-68
2024/01/05 01:07:47;;;;;;;185.73;70.45;;;;;;;7.79;nan;99211.41;5082264;28;20044;-70
2024/01/05 01:10:16;;;;;;;182.98;69.32;;;;;;;8.07;nan;99220.69;5079405;28;20053;-68
2024/01/05 01:12:46;;;;;;;187.43;68.25;;;;;;;7.76;nan;99222.28;5082122;28;20050;-70
2024/01/05 01:15:15;;;;;;;185.88;67.30;;;;;;;7.83;nan;99225.94;5107586;28;20051;-70
2024/01/05 01:17:45;;;;;;;177.93;64.70;;;;;;;7.66;nan;99230.31;5108629;28;20120;-69
2024/01/05 01:20:15;;;;;;;180.90;63.83;;;;;;;7.53;nan;99224.69;5081591;28;20048;-69
2024/01/05 01:22:45;;;;;;;173.15;65.43;;;;;;;7.63;nan;99228.03;5076198;28;20474;-69
2024/01/05 01:25:15;;;;;;;155.00;60.08;;;;;;;7.60;nan;99236.25;5079980;28;20049;-69
2024/01/05 01:27:44;;;;;;;161.68;60.35;;;;;;;7.47;nan;99227.16;5080441;28;20541;-69
2024/01/05 01:30:14;;;;;;;158.82;60.53;;;;;;;7.53;nan;99231.78;5086451;28;20052;-70
2024/01/05 01:32:43;;;;;;;167.07;61.88;;;;;;;7.50;nan;99240.00;5060221;28;20041;-69
2024/01/05 01:35:13;;;;;;;164.90;60.45;;;;;;;7.50;nan;99243.47;5075286;28;20056;-69
2024/01/05 01:37:42;;;;;;;166.07;61.10;;;;;;;7.62;nan;99246.63;5069103;28;20151;-71
2024/01/05 01:40:12;;;;;;;155.88;57.65;;;;;;;7.42;nan;99245.25;5072568;28;20079;-70
2024/01/05 01:42:49;;;;;;;160.07;61.33;;;;;;;7.38;nan;99247.38;5068605;28;20040;-70
2024/01/05 01:45:19;;;;;;;160.80;57.83;;;;;;;7.34;nan;99245.22;5069922;28;20044;-71
2024/01/05 01:47:49;;;;;;;151.68;55.83;;;;;;;7.51;nan;99254.84;5086222;28;20055;-70
2024/01/05 01:50:19;;;;;;;161.43;58.00;;;;;;;7.40;nan;99255.13;5081293;28;20048;-70
2024/01/05 01:52:49;;;;;;;163.25;57.42;;;;;;;7.36;nan;99256.41;5084491;28;20044;-70
2024/01/05 01:55:18;;;;;;;157.30;57.97;;;;;;;7.45;nan;99263.38;5067419;28;20826;-70
2024/01/05 01:57:48;;;;;;;157.43;55.95;;;;;;;7.44;nan;99253.81;5084187;28;20074;-70
2024/01/05 02:00:20;;;;;;;158.23;58.78;;;;;;;7.36;nan;99248.50;5053576;28;20045;-70
2024/01/05 02:02:51;;;;;;;146.77;54.65;;;;;;;7.36;nan;99262.50;5068526;28;20040;-70
2024/01/05 02:05:21;;;;;;;153.55;56.40;;;;;;;7.45;nan;99263.38;5066451;28;20059;-70
2024/01/05 02:07:51;;;;;;;152.73;55.10;;;;;;;7.43;nan;99271.47;5076110;28;20139;-70
2024/01/05 02:10:21;;;;;;;154.45;54.67;;;;;;;7.38;nan;99272.91;5081105;28;20160;-70
2024/01/05 02:12:51;;;;;;;160.27;55.22;;;;;;;7.45;nan;99274.75;5076147;28;20048;-70
2024/01/05 02:15:21;;;;;;;143.07;50.25;;;;;;;7.19;nan;99276.59;5083924;28;20178;-71
2024/01/05 02:17:50;;;;;;;141.40;50.95;;;;;;;7.22;nan;99281.53;5076333;28;20044;-71
2024/01/05 02:20:20;;;;;;;136.10;52.47;;;;;;;7.25;nan;99277.78;5079449;28;20056;-70
2024/01/05 02:22:56;;;;;;;141.45;52.55;;;;;;;7.26;nan;99288.13;5074276;28;20070;-70
2024/01/05 02:25:26;;;;;;;141.60;51.50;;;;;;;7.31;nan;99287.66;5081520;28;20052;-69
2024/01/05 02:27:55;;;;;;;146.73;51.92;;;;;;;7.51;nan;99289.09;5079689;28;20105;-70
2024/01/05 02:30:25;;;;;;;148.80;52.28;;;;;;;7.39;nan;99293.00;5079789;28;20040;-70
2024/01/05 02:32:54;;;;;;;140.90;51.10;;;;;;;7.23;nan;99291.94;5070689;28;20119;-70
2024/01/05 02:35:24;;;;;;;142.18;51.25;;;;;;;7.17;nan;99303.06;5065712;28;20056;-70
2024/01/05 02:37:53;;;;;;;149.00;52.58;;;;;;;7.32;nan;99310.41;5068398;28;20052;-71
2024/01/05 02:40:22;;;;;;;141.10;54.40;;;;;;;7.42;nan;99319.03;5085101;28;20101;-71
2024/01/05 02:42:52;;;;;;;152.95;54.25;;;;;;;7.46;nan;99329.09;5085348;28;20044;-71
2024/01/05 02:45:21;;;;;;;154.90;55.78;;;;;;;7.62;nan;99337.06;5080186;28;20060;-70
2024/01/05 02:47:52;;;;;;;149.55;57.50;;;;;;;7.47;nan;99336.03;5088000;28;20127;-70
2024/01/05 02:50:21;;;;;;;160.60;57.92;;;;;;;7.62;nan;99341.50;5077116;28;20064;-70
2024/01/05 02:52:51;;;;;;;167.82;61.33;;;;;;;7.67;nan;99355.06;5085445;28;20048;-71
2024/01/05 02:55:20;;;;;;;170.40;63.72;;;;;;;7.55;nan;99357.16;5077370;28;20510;-70
2024/01/05 02:57:50;;;;;;;169.23;60.65;;;;;;;7.73;nan;99357.06;5079978;28;20048;-70
2024/01/05 03:00:19;;;;;;;168.48;62.50;;;;;;;7.79;nan;99360.88;5077006;28;20052;-71
2024/01/05 03:02:49;;;;;;;172.20;63.30;;;;;;;7.69;nan;99358.38;5075986;28;20044;-71
2024/01/05 03:05:18;;;;;;;183.15;63.28;;;;;;;7.58;nan;99364.72;5082842;28;20044;-72
2024/01/05 03:07:48;;;;;;;184.98;66.75;;;;;;;7.91;nan;99368.34;5068121;28;20126;-70
2024/01/05 03:10:17;;;;;;;178.50;67.28;;;;;;;7.73;nan;99369.41;5073350;28;20043;-70
2024/01/05 03:12:48;;;;;;;189.13;67.55;;;;;;;7.92;nan;99374.47;5072530;28;20497;-70
2024/01/05 03:15:18;;;;;;;185.23;67.45;;;;;;;8.25;nan;99381.47;5056133;28;20052;-70
2024/01/05 03:17:48;;;;;;;186.30;66.78;;;;;;;7.92;nan;99369.97;5079134;28;20055;-71
2024/01/05 03:20:17;;;;;;;198.65;66.28;;;;;;;7.99;nan;99381.56;5075435;28;20051;-70
2024/01/05 03:22:49;;;;;;;185.95;64.75;;;;;;;8.04;nan;99389.84;5070923;28;20131;-70
2024/01/05 03:25:18;;;;;;;186.68;66.18;;;;;;;8.06;nan;99387.84;5074088;28;20656;-70
2024/01/05 03:27:48;;;;;;;177.45;66.03;;;;;;;7.97;nan;99401.16;5071789;28;20663;-70
2024/01/05 03:30:17;;;;;;;178.57;67.35;;;;;;;8.09;nan;99398.09;5062851;28;20110;-70
2024/01/05 03:32:47;;;;;;;176.77;67.60;;;;;;;8.20;nan;99404.03;5079524;28;20048;-70
2024/01/05 03:35:16;;;;;;;177.35;67.05;;;;;;;7.92;nan;99412.19;5077484;28;20406;-71
2024/01/05 03:37:46;;;;;;;195.55;66.38;;;;;;;8.10;nan;99412.91;5075537;28;20459;-70
2024/01/05 03:40:15;;;;;;;177.93;67.00;;;;;;;8.19;nan;99412.97;5051362;28;20067;-70
2024/01/05 03:42:45;;;;;;;185.82;69.32;;;;;;;7.99;nan;99418.50;5084010;28;20047;-70
2024/01/05 03:45:14;;;;;;;195.70;66.28;;;;;;;8.01;nan;99427.06;5068638;28;20048;-70
2024/01/05 03:47:44;;;;;;;192.77;69.72;;;;;;;8.12;nan;99432.06;5075855;28;20407;-70
2024/01/05 03:50:13;;;;;;;181.45;70.10;;;;;;;8.04;nan;99429.41;5065015;28;20048;-70
2024/01/05 03:52:43;;;;;;;196.95;72.18;;;;;;;8.18;nan;99433.25;5082750;28;20063;-70
2024/01/05 03:55:12;;;;;;;200.60;74.53;;;;;;;8.28;nan;99446.28;5097264;28;20048;-70
2024/01/05 03:57:42;;;;;;;189.57;73.60;;;;;;;8.26;nan;99450.91;5090731;28;20052;-70
2024/01/05 04:00:11;;;;;;;208.18;75.70;;;;;;;8.39;nan;99451.31;5084821;28;20249;-71
2024/01/05 04:02:41;;;;;;;212.93;79.03;;;;;;;8.62;nan;99454.19;5085462;28;20063;-72
2024/01/05 04:05:11;;;;;;;227.45;79.07;;;;;;;8.69;nan;99460.47;5084963;28;20052;-72
2024/01/05 04:07:40;;;;;;;231.13;81.53;;;;;;;8.43;nan;99464.03;5085571;28;20547;-70
2024/01/05 04:10:10;;;;;;;219.50;78.65;;;;;;;8.57;nan;99460.78;5083682;28;20109;-70
2024/01/05 04:12:40;;;;;;;231.70;79.97;;;;;;;8.83;nan;99468.59;5067115;28;20047;-70
2024/01/05 04:15:09;;;;;;;236.07;81.93;;;;;;;8.76;nan;99467.56;5084543;28;20055;-70
2024/01/05 04:17:39;;;;;;;243.27;81.95;;;;;;;8.58;nan;99466.91;5084486;28;20048;-71
2024/01/05 04:20:09;;;;;;;221.88;79.30;;;;;;;8.66;nan;99474.00;5080251;28;20543;-70
2024/01/05 04:22:39;;;;;;;244.35;88.18;;;;;;;8.52;nan;99470.16;5077253;28;20044;-71
2024/01/05 04:25:08;;;;;;;235.75;82.07;;;;;;;8.73;nan;99470.53;5068184;28;20135;-70
2024/01/05 04:27:38;;;;;;;244.05;79.78;;;;;;;8.85;nan;99463.97;5080361;28;20093;-71
2024/01/05 04:30:08;;;;;;;221.57;79.63;;;;;;;8.94;nan;99470.06;5078993;28;20040;-69
2024/01/05 04:32:38;;;;;;;243.52;77.85;;;;;;;9.09;nan;99472.91;5085638;28;20375;-68
2024/01/05 04:35:07;;;;;;;227.77;78.75;;;;;;;9.07;nan;99474.91;5092961;28;20055;-68
2024/01/05 04:37:37;;;;;;;228.48;77.57;;;;;;;9.05;nan;99474.22;5092739;28;20050;-68
2024/01/05 04:40:07;;;;;;;215.35;73.72;;;;;;;8.85;nan;99476.38;5072244;28;20052;-68
2024/01/05 04:42:37;;;;;;;219.98;76.90;;;;;;;9.06;nan;99475.88;5079952;28;20076;-68
2024/01/05 04:45:07;;;;;;;224.32;77.70;;;;;;;9.05;nan;99484.81;5081821;28;20566;-68
2024/01/05 04:47:38;;;;;;;196.55;72.22;;;;;;;9.18;nan;99477.22;5072860;28;20050;-68
2024/01/05 04:50:10;;;;;;;219.05;76.55;;;;;;;9.21;nan;99485.63;5078193;28;20238;-69
2024/01/05 04:52:39;;;;;;;203.63;73.78;;;;;;;9.16;nan;99487.94;5083891;28;20040;-69
2024/01/05 04:55:09;;;;;;;199.05;71.07;;;;;;;9.15;nan;99488.13;5065857;28;20051;-69
2024/01/05 04:57:39;;;;;;;202.98;72.80;;;;;;;9.28;nan;99493.75;5069030;28;20468;-69
2024/01/05 05:00:11;;;;;;;196.40;70.95;;;;;;;9.02;nan;99484.16;5062380;28;20072;-68
2024/01/05 05:02:40;;;;;;;204.23;72.65;;;;;;;9.17;nan;99488.78;5062245;28;20048;-69
2024/01/05 05:05:10;;;;;;;198.77;72.75;;;;;;;8.95;nan;99480.50;5060263;28;20092;-69
2024/01/05 05:07:39;;;;;;;193.50;69.85;;;;;;;9.04;nan;99481.34;5062239;28;20049;-70
2024/01/05 05:10:09;;;;;;;196.63;71.50;;;;;;;9.26;nan;99483.31;5051955;28;20048;-69
2024/01/05 05:12:39;;;;;;;196.65;69.35;;;;;;;9.41;nan;99481.69;5060463;28;20472;-70
2024/01/05 05:15:10;;;;;;;200.32;71.93;;;;;;;9.36;nan;99484.00;5033192;28;20044;-70
2024/01/05 05:17:39;;;;;;;188.30;72.00;;;;;;;9.27;nan;99484.16;5058530;28;20052;-70
2024/01/05 05:20:09;;;;;;;194.15;70.20;;;;;;;9.46;nan;99489.94;5051216;28;20044;-70
2024/01/05 05:22:43;;;;;;;202.18;74.70;;;;;;;9.45;nan;99487.47;5035185;28;20049;-69
2024/01/05 05:25:12;;;;;;;193.02;70.05;;;;;;;9.70;nan;99480.31;5070395;28;20044;-70
2024/01/05 05:27:42;;;;;;;207.32;71.53;;;;;;;9.60;nan;99477.88;5066063;28;20171;-71
2024/01/05 05:30:12;;;;;;;196.52;68.18;;;;;;;10.15;nan;99482.38;5057163;28;21836;-69
2024/01/05 05:32:41;;;;;;;205.13;72.80;;;;;;;10.09;nan;99483.06;5066572;28;20040;-69
2024/01/05 05:35:11;;;;;;;181.15;71.30;;;;;;;10.17;nan;99480.44;5065292;28;20036;-69
2024/01/05 05:37:40;;;;;;;188.48;69.47;;;;;;;10.18;nan;99480.22;5069117;28;20049;-68
2024/01/05 05:40:11;;;;;;;180.10;67.28;;;;;;;10.22;nan;99476.25;5065390;28;20052;-68
2024/01/05 05:42:41;;;;;;;180.88;66.35;;;;;;;10.08;nan;99478.75;5061098;28;20059;-69
2024/01/05 05:45:10;;;;;;;177.75;67.38;;;;;;;10.34;nan;99482.84;5052691;28;20210;-69
2024/01/05 05:47:40;;;;;;;172.60;67.45;;;;;;;10.50;nan;99473.97;5063672;28;20091;-70
2024/01/05 05:50:13;;;;;;;197.38;71.80;;;;;;;10.70;nan;99483.16;5048630;28;20045;-69
2024/01/05 05:52:43;;;;;;;174.52;69.00;;;;;;;10.44;nan;99474.69;5062117;28;20046;-71
2024/01/05 05:55:13;;;;;;;186.02;71.35;;;;;;;10.04;nan;99469.53;5050895;28;20063;-70
2024/01/05 05:57:43;;;;;;;161.57;65.55;;;;;;;10.33;nan;99475.88;5045027;28;20091;-70
2024/01/05 06:00:13;;;;;;;177.32;66.68;;;;;;;10.30;nan;99467.47;5063496;28;20067;-69
2024/01/05 06:02:43;;;;;;;186.75;70.38;;;;;;;10.45;nan;99457.78;5061565;28;20040;-69
2024/01/05 06:05:13;;;;;;;185.20;69.43;;;;;;;10.61;nan;99454.25;5063618;28;20048;-68
2024/01/05 06:07:42;;;;;;;174.73;70.20;;;;;;;10.55;nan;99449.63;5063317;28;20102;-69
2024/01/05 06:10:11;;;;;;;184.93;72.72;;;;;;;10.66;nan;99442.13;5064390;28;20131;-71
2024/01/05 06:12:41;;;;;;;178.90;72.13;;;;;;;10.86;nan;99441.66;5071651;28;20048;-70
2024/01/05 06:15:11;;;;;;;179.68;71.45;;;;;;;10.87;nan;99433.53;5063864;28;20055;-67
2024/01/05 06:17:40;;;;;;;185.98;77.40;;;;;;;10.94;nan;99428.34;5050841;28;20153;-68
2024/01/05 06:20:12;;;;;;;182.48;72.10;;;;;;;11.19;nan;99430.66;5064842;28;20048;-67
2024/01/05 06:22:43;;;;;;;192.32;76.90;;;;;;;10.96;nan;99415.75;5061466;28;20150;-68
2024/01/05 06:25:12;;;;;;;194.73;81.18;;;;;;;11.17;nan;99410.59;5072419;28;20075;-69
2024/01/05 06:27:41;;;;;;;213.18;86.75;;;;;;;10.95;nan;99414.09;5047659;28;20044;-67
2024/01/05 06:30:11;;;;;;;222.35;91.22;;;;;;;11.32;nan;99406.19;5071178;28;20047;-67
2024/01/05 06:32:41;;;;;;;251.32;104.20;;;;;;;11.06;nan;99403.94;5059197;28;20068;-68
2024/01/05 06:35:12;;;;;;;273.95;110.43;;;;;;;11.34;nan;99398.84;5034389;28;20055;-68
2024/01/05 06:37:41;;;;;;;274.63;112.05;;;;;;;11.61;nan;99394.78;5070320;28;20048;-68
2024/01/05 06:40:11;;;;;;;304.67;122.60;;;;;;;11.69;nan;99392.84;5061684;28;20127;-67
2024/01/05 06:42:41;;;;;;;305.95;127.63;;;;;;;11.68;nan;99385.88;5061368;28;20105;-67
2024/01/05 06:45:16;;;;;;;306.70;122.32;;;;;;;11.83;nan;99372.66;5023705;28;20645;-67
2024/01/05 06:47:46;;;;;;;306.37;126.87;;;;;;;11.69;nan;99371.63;5052446;28;20143;-68
2024/01/05 06:50:15;;;;;;;304.60;121.07;;;;;;;11.48;nan;99362.75;5070526;28;20310;-68
2024/01/05 06:52:45;;;;;;;304.13;123.15;;;;;;;11.57;nan;99351.88;5071013;28;20048;-66
2024/01/05 06:55:15;;;;;;;311.88;123.40;;;;;;;11.75;nan;99350.72;5058166;28;20052;-65
2024/01/05 06:57:45;;;;;;;309.73;127.03;;;;;;;11.12;nan;99354.66;5074036;28;20039;-67
2024/01/05 07:00:15;;;;;;;317.33;130.02;;;;;;;11.58;nan;99348.22;5071297;28;20055;-67
2024/01/05 07:02:45;;;;;;;338.08;132.45;;;;;;;11.18;nan;99345.97;5062201;28;20036;-67
2024/01/05 07:05:15;;;;;;;323.42;131.30;;;;;;;11.76;nan;99339.09;5075684;28;20055;-67
2024/01/05 07:07:44;;;;;;;321.63;124.25;;;;;;;11.59;nan;99330.47;5068210;28;20125;-68
2024/01/05 07:10:14;;;;;;;273.88;115.65;;;;;;;11.78;nan;99327.28;5065405;28;20068;-67
2024/01/05 07:12:43;;;;;;;288.65;117.68;;;;;;;11.31;nan;99327.63;5052539;28;20041;-67
2024/01/05 07:15:13;;;;;;;270.70;112.13;;;;;;;11.53;nan;99328.53;5068246;28;20052;-66
2024/01/05 07:17:44;;;;;;;265.02;104.75;;;;;;;11.80;nan;99319.97;5062414;28;20036;-67
2024/01/05 07:20:13;;;;;;;266.05;109.15;;;;;;;11.35;nan;99323.59;5068564;28;20044;-67
2024/01/05 07:22:43;;;;;;;252.07;103.22;;;;;;;11.44;nan;99335.78;5069165;28;20043;-67
2024/01/05 07:25:12;;;;;;;269.13;107.32;;;;;;;12.01;nan;99329.81;5061813;28;20040;-67
2024/01/05 07:27:42;;;;;;;256.20;105.30;;;;;;;11.46;nan;99323.13;5060437;28;20144;-67
2024/01/05 07:30:11;;;;;;;256.90;104.28;;;;;;;11.76;nan;99312.56;5062586;28;20055;-67
2024/01/05 07:32:41;;;;;;;257.45;106.43;;;;;;;11.89;nan;99320.69;5064224;28;20036;-69
2024/01/05 07:35:11;;;;;;;262.45;104.68;;;;;;;11.51;nan;99312.81;5062837;28;20049;-69
2024/01/05 07:37:40;;;;;;;273.25;105.07;;;;;;;11.81;nan;99312.81;5056476;28;20053;-66
2024/01/05 07:40:11;;;;;;;260.55;103.07;;;;;;;12.21;nan;99314.13;5062624;28;20052;-65
2024/01/05 07:42:40;;;;;;;258.75;103.07;;;;;;;11.66;nan;99304.84;5062759;28;20863;-65
2024/01/05 07:45:10;;;;;;;267.52;103.78;;;;;;;11.87;nan;99296.97;5063854;28;20599;-67
2024/01/05 07:47:40;;;;;;;273.33;110.07;;;;;;;11.57;nan;99293.50;5041866;28;20457;-67
2024/01/05 07:50:10;;;;;;;280.92;111.07;;;;;;;11.44;nan;99282.72;5064066;28;20052;-66
2024/01/05 07:52:39;;;;;;;276.25;108.57;;;;;;;11.79;nan;99283.81;5063099;28;20056;-65
2024/01/05 07:55:09;;;;;;;268.20;109.15;;;;;;;11.88;nan;99292.50;5063592;28;20048;-67
2024/01/05 07:57:39;;;;;;;261.48;107.25;;;;;;;12.12;nan;99286.84;5085489;28;20047;-67
2024/01/05 08:00:10;;;;;;;262.48;105.72;;;;;;;12.15;nan;99286.47;5093199;28;20044;-67
2024/01/05 08:02:40;;;;;;;268.38;106.45;;;;;;;12.16;nan;99264.22;5091403;28;20182;-67
2024/01/05 08:05:13;;;;;;;272.65;107.65;;;;;;;11.96;nan;99256.03;5065945;28;20130;-66
2024/01/05 08:07:45;;;;;;;272.27;108.25;;;;;;;11.76;nan;99256.84;5074288;28;20062;-66
2024/01/05 08:10:14;;;;;;;273.75;109.20;;;;;;;11.84;nan;99262.03;5091157;28;20131;-66
2024/01/05 08:12:44;;;;;;;268.83;110.47;;;;;;;11.88;nan;99253.50;5086407;28;20052;-66
2024/01/05 08:15:13;;;;;;;272.05;110.32;;;;;;;12.03;nan;99246.34;5091232;28;20299;-66
2024/01/05 08:17:43;;;;;;;280.35;110.03;;;;;;;11.98;nan;99246.06;5070330;28;20732;-67
2024/01/05 08:20:13;;;;;;;262.70;107.10;;;;;;;12.43;nan;99241.41;5082781;28;20199;-67
2024/01/05 08:22:42;;;;;;;248.02;105.78;;;;;;;12.13;nan;99238.84;5081043;28;20495;-67
2024/01/05 08:25:14;;;;;;;248.40;104.70;;;;;;;12.48;nan;99236.34;5082380;28;20059;-67
2024/01/05 08:27:44;;;;;;;241.68;101.75;;;;;;;12.09;nan;99247.38;5080584;28;20125;-67
2024/01/05 08:30:13;;;;;;;243.90;101.70;;;;;;;12.17;nan;99252.56;5079567;28;20044;-65
2024/01/05 08:32:43;;;;;;;238.23;99.18;;;;;;;12.19;nan;99249.75;5079093;28;20840;-67
2024/01/05 08:35:12;;;;;;;226.02;96.85;;;;;;;12.42;nan;99251.19;5080115;28;20083;-67
2024/01/05 08:37:42;;;;;;;234.55;96.63;;;;;;;12.48;nan;99250.41;5078759;28;20052;-68
2024/01/05 08:40:12;;;;;;;238.70;95.15;;;;;;;12.02;nan;99241.19;5072106;28;20109;-67
2024/01/05 08:42:41;;;;;;;219.35;92.57;;;;;;;11.81;nan;99244.66;5091086;28;20047;-66
2024/01/05 08:45:11;;;;;;;230.38;97.05;;;;;;;12.05;nan;99238.97;5082184;28;20467;-67
2024/01/05 08:47:41;;;;;;;235.70;95.15;;;;;;;12.04;nan;99234.69;5049817;28;20052;-65
2024/01/05 08:50:11;;;;;;;232.18;93.05;;;;;;;12.16;nan;99232.38;5083337;28;20479;-67
2024/01/05 08:52:41;;;;;;;220.98;89.32;;;;;;;12.21;nan;99232.63;5083846;28;20051;-67
2024/01/05 08:55:13;;;;;;;213.40;86.78;;;;;;;12.14;nan;99229.06;5064628;28;20716;-67
2024/01/05 08:57:43;;;;;;;213.87;88.17;;;;;;;12.39;nan;99224.19;5074947;28;20090;-65
2024/01/05 09:00:13;;;;;;;211.07;83.97;;;;;;;12.25;nan;99211.81;5083829;28;20383;-66
2024/01/05 09:02:43;;;;;;;205.65;82.85;;;;;;;12.24;nan;99216.28;5075380;28;20052;-69
2024/01/05 09:05:13;;;;;;;198.55;81.95;;;;;;;12.13;nan;99214.13;5062521;28;20047;-66
2024/01/05 09:07:42;;;;;;;185.20;76.63;;;;;;;11.95;nan;99211.91;5085079;28;20058;-65
2024/01/05 09:10:11;;;;;;;179.85;77.05;;;;;;;11.84;nan;99208.94;5064762;28;20502;-65
2024/01/05 09:12:41;;;;;;;177.73;74.65;;;;;;;11.61;nan;99199.28;5077938;28;20052;-66
2024/01/05 09:15:11;;;;;;;174.43;73.47;;;;;;;11.78;nan;99199.91;5092257;28;20047;-66
2024/01/05 09:17:41;;;;;;;175.25;71.03;;;;;;;11.95;nan;99200.50;5055060;28;20072;-69
2024/01/05 09:20:13;;;;;;;163.68;66.90;;;;;;;11.94;nan;99199.69;5074145;28;20522;-67
2024/01/05 09:22:43;;;;;;;170.95;66.18;;;;;;;11.64;nan;99211.34;5074523;28;20048;-67
2024/01/05 09:25:12;;;;;;;169.77;66.80;;;;;;;11.71;nan;99210.41;5072905;28;20558;-68
2024/01/05 09:27:41;;;;;;;158.80;66.53;;;;;;;11.35;nan;99204.28;5089069;28;20116;-67
2024/01/05 09:30:11;;;;;;;157.82;66.85;;;;;;;11.37;nan;99210.22;5079786;28;20044;-66
2024/01/05 09:32:41;;;;;;;152.38;65.47;;;;;;;11.23;nan;99209.22;5084324;28;21552;-65
2024/01/05 09:35:11;;;;;;;156.70;64.03;;;;;;;11.65;nan;99211.16;5084341;28;20665;-65
2024/01/05 09:37:40;;;;;;;154.27;64.63;;;;;;;11.45;nan;99211.94;5086586;28;20059;-64
2024/01/05 09:40:10;;;;;;;150.32;63.45;;;;;;;11.76;nan;99217.03;5090324;28;20043;-65
2024/01/05 09:42:54;;;;;;;156.43;63.65;;;;;;;11.61;nan;99222.31;5089641;28;20050;-66
2024/01/05 09:45:24;;;;;;;148.75;59.97;;;;;;;11.60;nan;99228.63;5085674;28;20044;-66
2024/01/05 09:47:57;;;;;;;153.75;63.22;;;;;;;11.71;nan;99230.81;5087121;28;20623;-65
2024/01/05 09:50:28;;;;;;;150.20;62.50;;;;;;;11.73;nan;99220.06;5086463;28;20043;-66
2024/01/05 09:52:58;;;;;;;133.57;56.35;;;;;;;11.69;nan;99223.03;5083000;28;20435;-67
2024/01/05 09:55:27;;;;;;;142.60;59.10;;;;;;;11.71;nan;99230.81;5077955;28;20105;-68
2024/01/05 09:57:58;;;;;;;145.57;59.35;;;;;;;11.65;nan;99227.06;5083918;28;20431;-67
2024/01/05 10:00:28;;;;;;;140.20;57.45;;;;;;;11.79;nan;99229.91;5035983;28;20055;-66
2024/01/05 10:03:04;;;;;;;129.05;58.78;;;;;;;11.86;nan;99226.31;5087608;28;20040;-68
2024/01/05 10:05:33;;;;;;;140.05;59.60;;;;;;;11.78;nan;99230.91;5076153;28;20052;-65
2024/01/05 10:08:06;;;;;;;139.10;56.38;;;;;;;11.63;nan;99223.81;5078483;28;20059;-66
2024/01/05 10:10:55;;;;;;;138.70;59.03;;;;;;;11.87;nan;99227.97;5084432;28;20051;-66
2024/01/05 10:13:25;;;;;;;137.88;61.72;;;;;;;11.70;nan;99232.66;5081807;28;20048;-67
2024/01/05 10:15:59;;;;;;;129.15;60.25;;;;;;;11.71;nan;99233.47;5041100;28;20772;-66
2024/01/05 10:18:29;;;;;;;139.85;62.03;;;;;;;11.91;nan;99231.88;5087785;28;20424;-67
2024/01/05 10:21:11;;;;;;;152.68;63.28;;;;;;;11.93;nan;99231.72;5084410;28;20538;-66
2024/01/05 10:23:44;;;;;;;148.05;61.20;;;;;;;11.85;nan;99234.47;5076146;28;20485;-65
2024/01/05 10:26:18;;;;;;;139.35;61.65;;;;;;;11.52;nan;99234.88;5068702;28;20055;-65
2024/01/05 10:28:49;;;;;;;149.20;62.63;;;;;;;11.71;nan;99233.47;5081173;28;20058;-65
2024/01/05 10:31:18;;;;;;;145.73;62.92;;;;;;;11.55;nan;99231.06;5062995;28;20049;-67
2024/01/05 10:33:53;;;;;;;141.80;61.25;;;;;;;11.66;nan;99222.59;5078524;28;20522;-63
2024/01/05 10:36:24;;;;;;;149.30;62.90;;;;;;;11.74;nan;99214.56;5076659;28;20483;-63
2024/01/05 10:38:53;;;;;;;142.30;61.00;;;;;;;11.70;nan;99206.13;5094815;28;20076;-65
2024/01/05 10:41:22;;;;;;;147.77;62.88;;;;;;;11.80;nan;99207.69;5092222;28;20048;-68
2024/01/05 10:43:53;;;;;;;141.18;64.10;;;;;;;11.55;nan;99209.81;5083562;28;20052;-66
2024/01/05 10:46:24;;;;;;;143.82;62.00;;;;;;;11.76;nan;99219.69;5086583;28;20062;-67
2024/01/05 10:48:54;;;;;;;145.88;64.57;;;;;;;11.94;nan;99225.41;5082570;28;20044;-66
2024/01/05 10:51:26;;;;;;;130.10;61.40;;;;;;;11.97;nan;99236.44;5083361;28;20055;-66
2024/01/05 10:53:58;;;;;;;138.95;62.63;;;;;;;11.69;nan;99233.66;5067282;28;20510;-66
2024/01/05 10:56:31;;;;;;;139.38;63.97;;;;;;;11.70;nan;99242.44;5080659;28;20049;-66
2024/01/05 10:59:02;;;;;;;138.85;62.90;;;;;;;11.65;nan;99237.69;5079413;28;20133;-68
2024/01/05 11:01:32;;;;;;;142.27;63.03;;;;;;;11.56;nan;99241.44;5069768;28;20406;-66
2024/01/05 11:04:04;;;;;;;134.98;61.33;;;;;;;11.61;nan;99235.59;5084125;28;20045;-67
2024/01/05 11:06:37;;;;;;;145.27;65.28;;;;;;;11.50;nan;99238.72;5083030;28;20123;-69
2024/01/05 11:09:27;;;;;;;142.93;63.40;;;;;;;11.46;nan;99230.31;5102138;28;20475;-67
2024/01/05 11:12:05;;;;;;;137.43;58.25;;;;;;;11.71;nan;99228.16;5076510;28;20048;-69
2024/01/05 11:15:17;;;;;;;139.10;61.47;;;;;;;11.69;nan;99232.81;5080228;28;20051;-69
2024/01/05 11:18:00;;;;;;;134.77;57.58;;;;;;;11.51;nan;99225.28;5070986;28;20059;-70
2024/01/05 11:21:07;;;;;;;144.25;60.03;;;;;;;11.55;nan;99231.84;5074190;28;20060;-71
2024/01/05 11:23:40;;;;;;;144.07;61.08;;;;;;;11.41;nan;99232.72;5023915;28;20052;-70
2024/01/05 11:26:34;;;;;;;143.35;60.60;;;;;;;11.41;nan;99235.38;5075249;28;20044;-71
2024/01/05 11:29:05;;;;;;;127.38;58.13;;;;;;;11.38;nan;99241.00;4722793;28;10000519;-70
2024/01/05 11:31:46;;;;;;;136.20;58.30;;;;;;;11.51;nan;99235.88;5051563;28;20059;-71
2024/01/05 11:34:36;;;;;;;136.55;59.58;;;;;;;11.69;nan;99230.16;5070489;28;20081;-71
2024/01/05 11:37:05;;;;;;;138.38;58.55;;;;;;;11.62;nan;99222.16;5072463;28;20054;-71
2024/01/05 11:39:45;;;;;;;150.07;59.47;;;;;;;11.43;nan;99224.56;5063582;28;20543;-72
2024/01/05 11:42:33;;;;;;;130.98;59.05;;;;;;;11.45;nan;99241.94;5079329;28;20059;-70